sensor_id;sensor_type;location;lat;lon;timestamp;temperature;humidity
79711;DHT22;69465;51.630;6.570;2023-05-10T00:01:34;14.30;70.30
79711;DHT22;69465;51.630;6.570;2023-05-10T00:04:00;14.30;70.60
79711;DHT22;69465;51.630;6.570;2023-05-10T00:06:27;14.30;70.30
79711;DHT22;69465;51.630;6.570;2023-05-10T00:08:54;14.30;70.30
79711;DHT22;69465;51.630;6.570;2023-05-10T00:11:21;14.30;70.40
79711;DHT22;69465;51.630;6.570;2023-05-10T00:13:48;14.20;70.20
79711;DHT22;69465;51.630;6.570;2023-05-10T00:16:15;14.20;70.20
79711;DHT22;69465;51.630;6.570;2023-05-10T00:18:42;14.20;70.20
79711;DHT22;69465;51.630;6.570;2023-05-10T00:21:08;14.20;70.20
79711;DHT22;69465;51.630;6.570;2023-05-10T00:23:34;14.20;70.00
79711;DHT22;69465;51.630;6.570;2023-05-10T00:26:01;14.20;70.00
79711;DHT22;69465;51.630;6.570;2023-05-10T00:28:28;14.10;70.20
79711;DHT22;69465;51.630;6.570;2023-05-10T00:30:54;14.10;70.10
79711;DHT22;69465;51.630;6.570;2023-05-10T00:33:22;14.10;70.10
79711;DHT22;69465;51.630;6.570;2023-05-10T00:35:48;14.10;70.10
79711;DHT22;69465;51.630;6.570;2023-05-10T00:38:15;14.10;70.00
79711;DHT22;69465;51.630;6.570;2023-05-10T00:40:41;14.10;70.30
79711;DHT22;69465;51.630;6.570;2023-05-10T00:43:08;14.10;70.20
79711;DHT22;69465;51.630;6.570;2023-05-10T00:45:35;14.10;70.30
79711;DHT22;69465;51.630;6.570;2023-05-10T00:48:03;14.10;70.20
79711;DHT22;69465;51.630;6.570;2023-05-10T00:50:31;14.10;70.10
79711;DHT22;69465;51.630;6.570;2023-05-10T00:52:59;14.10;70.40
79711;DHT22;69465;51.630;6.570;2023-05-10T00:55:26;14.10;70.30
79711;DHT22;69465;51.630;6.570;2023-05-10T00:57:53;14.10;70.00
79711;DHT22;69465;51.630;6.570;2023-05-10T01:00:20;14.10;69.90
79711;DHT22;69465;51.630;6.570;2023-05-10T01:02:47;14.10;69.90
79711;DHT22;69465;51.630;6.570;2023-05-10T01:05:14;14.10;69.60
79711;DHT22;69465;51.630;6.570;2023-05-10T01:07:41;14.10;70.00
79711;DHT22;69465;51.630;6.570;2023-05-10T01:10:08;14.00;70.00
79711;DHT22;69465;51.630;6.570;2023-05-10T01:12:41;14.00;70.30
79711;DHT22;69465;51.630;6.570;2023-05-10T01:15:09;14.10;70.20
79711;DHT22;69465;51.630;6.570;2023-05-10T01:17:38;14.00;70.00
79711;DHT22;69465;51.630;6.570;2023-05-10T01:20:07;14.00;69.80
79711;DHT22;69465;51.630;6.570;2023-05-10T01:26:18;14.00;69.90
79711;DHT22;69465;51.630;6.570;2023-05-10T01:31:51;13.90;69.90
79711;DHT22;69465;51.630;6.570;2023-05-10T01:34:27;13.90;70.10
79711;DHT22;69465;51.630;6.570;2023-05-10T01:37:04;13.90;70.30
79711;DHT22;69465;51.630;6.570;2023-05-10T01:39:40;13.90;70.50
79711;DHT22;69465;51.630;6.570;2023-05-10T01:42:11;14.00;70.50
79711;DHT22;69465;51.630;6.570;2023-05-10T01:44:52;14.00;71.40
79711;DHT22;69465;51.630;6.570;2023-05-10T01:47:46;14.00;70.80
79711;DHT22;69465;51.630;6.570;2023-05-10T01:50:17;14.00;70.60
79711;DHT22;69465;51.630;6.570;2023-05-10T01:52:51;14.00;70.10
79711;DHT22;69465;51.630;6.570;2023-05-10T01:55:21;14.00;69.90
79711;DHT22;69465;51.630;6.570;2023-05-10T01:57:55;14.00;70.10
79711;DHT22;69465;51.630;6.570;2023-05-10T02:00:23;14.00;70.20
79711;DHT22;69465;51.630;6.570;2023-05-10T02:02:52;14.00;70.40
79711;DHT22;69465;51.630;6.570;2023-05-10T02:05:20;14.00;70.30
79711;DHT22;69465;51.630;6.570;2023-05-10T02:07:48;14.10;70.40
79711;DHT22;69465;51.630;6.570;2023-05-10T02:10:16;14.10;70.20
79711;DHT22;69465;51.630;6.570;2023-05-10T02:12:47;14.10;70.10
79711;DHT22;69465;51.630;6.570;2023-05-10T02:15:21;14.00;70.20
79711;DHT22;69465;51.630;6.570;2023-05-10T02:17:49;14.00;70.40
79711;DHT22;69465;51.630;6.570;2023-05-10T02:20:16;14.00;70.60
79711;DHT22;69465;51.630;6.570;2023-05-10T02:22:47;14.10;70.70
79711;DHT22;69465;51.630;6.570;2023-05-10T02:25:16;14.10;70.70
79711;DHT22;69465;51.630;6.570;2023-05-10T02:27:44;14.10;70.70
79711;DHT22;69465;51.630;6.570;2023-05-10T02:30:13;14.10;70.30
79711;DHT22;69465;51.630;6.570;2023-05-10T02:32:41;14.10;70.30
79711;DHT22;69465;51.630;6.570;2023-05-10T02:35:09;14.10;70.30
79711;DHT22;69465;51.630;6.570;2023-05-10T02:37:37;14.10;70.30
79711;DHT22;69465;51.630;6.570;2023-05-10T02:40:05;14.10;70.50
79711;DHT22;69465;51.630;6.570;2023-05-10T02:42:35;14.10;70.70
79711;DHT22;69465;51.630;6.570;2023-05-10T02:45:07;14.10;70.40
79711;DHT22;69465;51.630;6.570;2023-05-10T02:47:34;14.10;70.60
79711;DHT22;69465;51.630;6.570;2023-05-10T02:50:01;14.20;70.60
79711;DHT22;69465;51.630;6.570;2023-05-10T02:52:35;14.20;70.80
79711;DHT22;69465;51.630;6.570;2023-05-10T02:55:05;14.20;70.70
79711;DHT22;69465;51.630;6.570;2023-05-10T02:57:34;14.20;70.60
79711;DHT22;69465;51.630;6.570;2023-05-10T03:00:01;14.20;70.50
79711;DHT22;69465;51.630;6.570;2023-05-10T03:02:28;14.20;70.30
79711;DHT22;69465;51.630;6.570;2023-05-10T03:04:55;14.20;71.10
79711;DHT22;69465;51.630;6.570;2023-05-10T03:07:22;14.20;70.30
79711;DHT22;69465;51.630;6.570;2023-05-10T03:09:49;14.20;70.00
79711;DHT22;69465;51.630;6.570;2023-05-10T03:12:33;14.20;70.10
79711;DHT22;69465;51.630;6.570;2023-05-10T03:18:13;14.20;70.30
79711;DHT22;69465;51.630;6.570;2023-05-10T03:20:49;14.20;70.40
79711;DHT22;69465;51.630;6.570;2023-05-10T03:23:35;14.20;70.40
79711;DHT22;69465;51.630;6.570;2023-05-10T03:26:25;14.20;70.40
79711;DHT22;69465;51.630;6.570;2023-05-10T03:28:53;14.20;70.80
79711;DHT22;69465;51.630;6.570;2023-05-10T03:31:21;14.20;70.80
79711;DHT22;69465;51.630;6.570;2023-05-10T03:33:51;14.10;70.70
79711;DHT22;69465;51.630;6.570;2023-05-10T03:36:19;14.20;70.90
79711;DHT22;69465;51.630;6.570;2023-05-10T03:38:46;14.20;70.60
79711;DHT22;69465;51.630;6.570;2023-05-10T03:41:13;14.20;70.60
79711;DHT22;69465;51.630;6.570;2023-05-10T03:43:39;14.30;70.80
79711;DHT22;69465;51.630;6.570;2023-05-10T03:46:06;14.30;71.30
79711;DHT22;69465;51.630;6.570;2023-05-10T03:48:32;14.30;70.60
79711;DHT22;69465;51.630;6.570;2023-05-10T03:50:59;14.30;70.30
79711;DHT22;69465;51.630;6.570;2023-05-10T03:53:26;14.30;70.30
79711;DHT22;69465;51.630;6.570;2023-05-10T03:55:53;14.30;70.20
79711;DHT22;69465;51.630;6.570;2023-05-10T03:58:20;14.30;69.80
79711;DHT22;69465;51.630;6.570;2023-05-10T04:00:46;14.30;70.70
79711;DHT22;69465;51.630;6.570;2023-05-10T04:03:14;14.20;69.80
79711;DHT22;69465;51.630;6.570;2023-05-10T04:05:40;14.30;70.20
79711;DHT22;69465;51.630;6.570;2023-05-10T04:08:07;14.30;70.40
79711;DHT22;69465;51.630;6.570;2023-05-10T04:10:34;14.30;69.80
79711;DHT22;69465;51.630;6.570;2023-05-10T04:13:00;14.30;70.00
79711;DHT22;69465;51.630;6.570;2023-05-10T04:15:27;14.20;69.60
79711;DHT22;69465;51.630;6.570;2023-05-10T04:17:54;14.30;70.30
79711;DHT22;69465;51.630;6.570;2023-05-10T04:20:20;14.30;70.20
79711;DHT22;69465;51.630;6.570;2023-05-10T04:22:47;14.20;69.70
79711;DHT22;69465;51.630;6.570;2023-05-10T04:25:13;14.20;69.90
79711;DHT22;69465;51.630;6.570;2023-05-10T04:27:40;14.30;69.70
79711;DHT22;69465;51.630;6.570;2023-05-10T04:30:07;14.30;69.70
79711;DHT22;69465;51.630;6.570;2023-05-10T04:32:34;14.30;70.10
79711;DHT22;69465;51.630;6.570;2023-05-10T04:35:01;14.20;69.80
79711;DHT22;69465;51.630;6.570;2023-05-10T04:37:28;14.30;70.10
79711;DHT22;69465;51.630;6.570;2023-05-10T04:39:54;14.30;70.00
79711;DHT22;69465;51.630;6.570;2023-05-10T04:42:21;14.30;69.90
79711;DHT22;69465;51.630;6.570;2023-05-10T04:44:47;14.30;69.70
79711;DHT22;69465;51.630;6.570;2023-05-10T04:47:14;14.30;69.90
79711;DHT22;69465;51.630;6.570;2023-05-10T04:49:40;14.40;69.80
79711;DHT22;69465;51.630;6.570;2023-05-10T04:52:07;14.30;69.90
79711;DHT22;69465;51.630;6.570;2023-05-10T04:54:33;14.40;70.00
79711;DHT22;69465;51.630;6.570;2023-05-10T04:57:00;14.40;69.70
79711;DHT22;69465;51.630;6.570;2023-05-10T04:59:27;14.40;69.80
79711;DHT22;69465;51.630;6.570;2023-05-10T05:01:53;14.40;69.50
79711;DHT22;69465;51.630;6.570;2023-05-10T05:04:20;14.40;69.70
79711;DHT22;69465;51.630;6.570;2023-05-10T05:06:47;14.50;70.00
79711;DHT22;69465;51.630;6.570;2023-05-10T05:09:13;14.50;69.70
79711;DHT22;69465;51.630;6.570;2023-05-10T05:11:40;14.50;69.60
79711;DHT22;69465;51.630;6.570;2023-05-10T05:14:07;14.60;69.50
79711;DHT22;69465;51.630;6.570;2023-05-10T05:16:33;14.60;69.50
79711;DHT22;69465;51.630;6.570;2023-05-10T05:19:00;14.70;69.50
79711;DHT22;69465;51.630;6.570;2023-05-10T05:21:27;14.70;69.60
79711;DHT22;69465;51.630;6.570;2023-05-10T05:23:53;14.80;69.70
79711;DHT22;69465;51.630;6.570;2023-05-10T05:26:20;14.80;69.10
79711;DHT22;69465;51.630;6.570;2023-05-10T05:28:47;14.90;68.80
79711;DHT22;69465;51.630;6.570;2023-05-10T05:31:13;14.80;68.50
79711;DHT22;69465;51.630;6.570;2023-05-10T05:33:40;14.90;68.60
79711;DHT22;69465;51.630;6.570;2023-05-10T05:36:07;14.90;68.00
79711;DHT22;69465;51.630;6.570;2023-05-10T05:38:33;14.90;68.00
79711;DHT22;69465;51.630;6.570;2023-05-10T05:41:00;14.90;68.50
79711;DHT22;69465;51.630;6.570;2023-05-10T05:43:27;15.00;68.20
79711;DHT22;69465;51.630;6.570;2023-05-10T05:45:53;15.00;67.70
79711;DHT22;69465;51.630;6.570;2023-05-10T05:48:21;15.00;68.00
79711;DHT22;69465;51.630;6.570;2023-05-10T05:50:48;15.00;67.50
79711;DHT22;69465;51.630;6.570;2023-05-10T05:53:15;15.00;67.60
79711;DHT22;69465;51.630;6.570;2023-05-10T05:55:51;15.00;67.60
79711;DHT22;69465;51.630;6.570;2023-05-10T05:58:18;14.90;67.40
79711;DHT22;69465;51.630;6.570;2023-05-10T06:00:44;15.00;67.90
79711;DHT22;69465;51.630;6.570;2023-05-10T06:03:11;15.00;67.40
79711;DHT22;69465;51.630;6.570;2023-05-10T06:05:38;15.00;67.40
79711;DHT22;69465;51.630;6.570;2023-05-10T06:08:05;15.10;67.60
79711;DHT22;69465;51.630;6.570;2023-05-10T06:10:32;15.10;67.10
79711;DHT22;69465;51.630;6.570;2023-05-10T06:12:58;15.10;66.70
79711;DHT22;69465;51.630;6.570;2023-05-10T06:15:25;15.10;66.70
79711;DHT22;69465;51.630;6.570;2023-05-10T06:17:52;15.10;67.00
79711;DHT22;69465;51.630;6.570;2023-05-10T06:20:19;15.10;67.10
79711;DHT22;69465;51.630;6.570;2023-05-10T06:22:45;15.10;66.90
79711;DHT22;69465;51.630;6.570;2023-05-10T06:25:12;15.10;66.40
79711;DHT22;69465;51.630;6.570;2023-05-10T06:27:39;15.10;66.60
79711;DHT22;69465;51.630;6.570;2023-05-10T06:30:06;15.20;66.90
79711;DHT22;69465;51.630;6.570;2023-05-10T06:32:39;15.20;66.80
79711;DHT22;69465;51.630;6.570;2023-05-10T06:35:06;15.20;66.20
79711;DHT22;69465;51.630;6.570;2023-05-10T06:37:33;15.20;67.20
79711;DHT22;69465;51.630;6.570;2023-05-10T06:40:00;15.20;67.10
79711;DHT22;69465;51.630;6.570;2023-05-10T06:42:26;15.30;66.20
79711;DHT22;69465;51.630;6.570;2023-05-10T06:44:53;15.30;66.40
79711;DHT22;69465;51.630;6.570;2023-05-10T06:47:19;15.40;66.30
79711;DHT22;69465;51.630;6.570;2023-05-10T06:49:46;15.40;65.90
79711;DHT22;69465;51.630;6.570;2023-05-10T06:52:13;15.50;66.10
79711;DHT22;69465;51.630;6.570;2023-05-10T06:54:39;15.50;66.00
79711;DHT22;69465;51.630;6.570;2023-05-10T06:57:06;15.60;66.00
79711;DHT22;69465;51.630;6.570;2023-05-10T06:59:49;15.60;65.60
79711;DHT22;69465;51.630;6.570;2023-05-10T07:02:15;15.60;65.60
79711;DHT22;69465;51.630;6.570;2023-05-10T07:04:42;15.60;66.60
79711;DHT22;69465;51.630;6.570;2023-05-10T07:07:08;15.70;66.40
79711;DHT22;69465;51.630;6.570;2023-05-10T07:09:35;15.70;65.40
79711;DHT22;69465;51.630;6.570;2023-05-10T07:12:02;15.80;64.90
79711;DHT22;69465;51.630;6.570;2023-05-10T07:14:28;15.80;65.40
79711;DHT22;69465;51.630;6.570;2023-05-10T07:16:55;15.90;65.50
79711;DHT22;69465;51.630;6.570;2023-05-10T07:19:21;15.90;64.70
79711;DHT22;69465;51.630;6.570;2023-05-10T07:21:48;15.90;64.50
79711;DHT22;69465;51.630;6.570;2023-05-10T07:24:15;15.90;64.50
79711;DHT22;69465;51.630;6.570;2023-05-10T07:26:42;15.90;64.50
79711;DHT22;69465;51.630;6.570;2023-05-10T07:29:08;15.90;64.60
79711;DHT22;69465;51.630;6.570;2023-05-10T07:31:35;15.90;64.50
79711;DHT22;69465;51.630;6.570;2023-05-10T07:34:01;15.80;64.50
79711;DHT22;69465;51.630;6.570;2023-05-10T07:36:28;15.90;64.10
79711;DHT22;69465;51.630;6.570;2023-05-10T07:38:55;15.90;64.50
79711;DHT22;69465;51.630;6.570;2023-05-10T07:41:21;15.90;63.40
79711;DHT22;69465;51.630;6.570;2023-05-10T07:43:48;15.90;64.60
79711;DHT22;69465;51.630;6.570;2023-05-10T07:46:14;15.90;64.50
79711;DHT22;69465;51.630;6.570;2023-05-10T07:48:41;16.00;64.60
79711;DHT22;69465;51.630;6.570;2023-05-10T07:51:08;16.10;65.80
79711;DHT22;69465;51.630;6.570;2023-05-10T07:53:35;16.30;64.40
79711;DHT22;69465;51.630;6.570;2023-05-10T07:58:46;16.70;62.60
79711;DHT22;69465;51.630;6.570;2023-05-10T08:01:13;17.00;62.10
79711;DHT22;69465;51.630;6.570;2023-05-10T08:03:39;17.20;60.80
79711;DHT22;69465;51.630;6.570;2023-05-10T08:06:06;17.30;60.20
79711;DHT22;69465;51.630;6.570;2023-05-10T08:08:33;17.40;61.00
79711;DHT22;69465;51.630;6.570;2023-05-10T08:10:59;17.70;60.40
79711;DHT22;69465;51.630;6.570;2023-05-10T08:13:26;18.00;58.80
79711;DHT22;69465;51.630;6.570;2023-05-10T08:15:52;18.10;56.90
79711;DHT22;69465;51.630;6.570;2023-05-10T08:18:19;18.30;56.50
79711;DHT22;69465;51.630;6.570;2023-05-10T08:20:47;18.30;55.70
79711;DHT22;69465;51.630;6.570;2023-05-10T08:23:14;18.10;55.00
79711;DHT22;69465;51.630;6.570;2023-05-10T08:25:41;17.90;54.70
79711;DHT22;69465;51.630;6.570;2023-05-10T08:28:07;17.70;56.10
79711;DHT22;69465;51.630;6.570;2023-05-10T08:30:37;17.50;56.40
79711;DHT22;69465;51.630;6.570;2023-05-10T08:33:03;17.30;57.80
79711;DHT22;69465;51.630;6.570;2023-05-10T08:35:30;17.10;57.70
79711;DHT22;69465;51.630;6.570;2023-05-10T08:37:57;17.00;58.30
79711;DHT22;69465;51.630;6.570;2023-05-10T08:40:24;17.00;57.90
79711;DHT22;69465;51.630;6.570;2023-05-10T08:43:06;16.90;57.20
79711;DHT22;69465;51.630;6.570;2023-05-10T08:45:39;16.80;58.80
79711;DHT22;69465;51.630;6.570;2023-05-10T08:48:08;16.70;57.80
79711;DHT22;69465;51.630;6.570;2023-05-10T08:50:40;16.70;58.90
79711;DHT22;69465;51.630;6.570;2023-05-10T08:53:11;16.80;59.10
79711;DHT22;69465;51.630;6.570;2023-05-10T08:55:39;16.70;58.50
79711;DHT22;69465;51.630;6.570;2023-05-10T08:58:06;16.60;57.50
79711;DHT22;69465;51.630;6.570;2023-05-10T09:00:33;16.50;58.20
79711;DHT22;69465;51.630;6.570;2023-05-10T09:03:02;16.30;59.00
79711;DHT22;69465;51.630;6.570;2023-05-10T09:05:29;16.30;59.30
79711;DHT22;69465;51.630;6.570;2023-05-10T09:07:56;16.30;60.30
79711;DHT22;69465;51.630;6.570;2023-05-10T09:10:23;16.20;58.90
79711;DHT22;69465;51.630;6.570;2023-05-10T09:12:52;16.30;58.60
79711;DHT22;69465;51.630;6.570;2023-05-10T09:15:19;16.20;58.80
79711;DHT22;69465;51.630;6.570;2023-05-10T09:17:47;16.30;59.90
79711;DHT22;69465;51.630;6.570;2023-05-10T09:20:15;16.40;59.20
79711;DHT22;69465;51.630;6.570;2023-05-10T09:22:42;16.50;58.60
79711;DHT22;69465;51.630;6.570;2023-05-10T09:25:11;16.70;59.30
79711;DHT22;69465;51.630;6.570;2023-05-10T09:27:39;16.80;58.60
79711;DHT22;69465;51.630;6.570;2023-05-10T09:30:07;17.00;57.70
79711;DHT22;69465;51.630;6.570;2023-05-10T09:32:42;17.20;56.10
79711;DHT22;69465;51.630;6.570;2023-05-10T09:35:17;17.30;56.50
79711;DHT22;69465;51.630;6.570;2023-05-10T09:37:46;17.40;56.30
79711;DHT22;69465;51.630;6.570;2023-05-10T09:40:16;17.50;56.40
79711;DHT22;69465;51.630;6.570;2023-05-10T09:42:52;17.60;56.50
79711;DHT22;69465;51.630;6.570;2023-05-10T09:45:19;17.70;56.20
79711;DHT22;69465;51.630;6.570;2023-05-10T09:47:46;17.70;55.30
79711;DHT22;69465;51.630;6.570;2023-05-10T09:50:13;17.70;55.80
79711;DHT22;69465;51.630;6.570;2023-05-10T09:52:53;17.70;56.60
79711;DHT22;69465;51.630;6.570;2023-05-10T09:55:22;17.60;55.60
79711;DHT22;69465;51.630;6.570;2023-05-10T09:57:58;17.60;55.20
79711;DHT22;69465;51.630;6.570;2023-05-10T10:00:26;17.60;55.40
79711;DHT22;69465;51.630;6.570;2023-05-10T10:03:00;17.60;56.20
79711;DHT22;69465;51.630;6.570;2023-05-10T10:05:34;17.70;57.80
79711;DHT22;69465;51.630;6.570;2023-05-10T10:08:05;17.80;56.70
79711;DHT22;69465;51.630;6.570;2023-05-10T10:10:33;18.00;56.90
79711;DHT22;69465;51.630;6.570;2023-05-10T10:12:59;18.10;54.90
79711;DHT22;69465;51.630;6.570;2023-05-10T10:15:27;18.30;55.00
79711;DHT22;69465;51.630;6.570;2023-05-10T10:17:54;18.50;54.20
79711;DHT22;69465;51.630;6.570;2023-05-10T10:20:22;18.60;53.70
79711;DHT22;69465;51.630;6.570;2023-05-10T10:22:49;18.50;54.50
79711;DHT22;69465;51.630;6.570;2023-05-10T10:25:17;18.40;54.40
79711;DHT22;69465;51.630;6.570;2023-05-10T10:28:05;18.40;54.90
79711;DHT22;69465;51.630;6.570;2023-05-10T10:30:48;18.50;55.60
79711;DHT22;69465;51.630;6.570;2023-05-10T10:33:40;18.40;54.30
79711;DHT22;69465;51.630;6.570;2023-05-10T10:36:14;18.40;54.40
79711;DHT22;69465;51.630;6.570;2023-05-10T10:49:45;17.80;56.70
79711;DHT22;69465;51.630;6.570;2023-05-10T10:52:29;17.70;56.50
79711;DHT22;69465;51.630;6.570;2023-05-10T10:57:50;17.50;57.90
79711;DHT22;69465;51.630;6.570;2023-05-10T11:00:31;17.50;57.50
79711;DHT22;69465;51.630;6.570;2023-05-10T11:03:05;17.50;58.30
79711;DHT22;69465;51.630;6.570;2023-05-10T11:08:01;17.50;56.90
79711;DHT22;69465;51.630;6.570;2023-05-10T11:10:33;17.50;56.40
79711;DHT22;69465;51.630;6.570;2023-05-10T11:13:07;17.60;56.50
79711;DHT22;69465;51.630;6.570;2023-05-10T11:15:36;17.70;56.60
79711;DHT22;69465;51.630;6.570;2023-05-10T11:18:19;17.80;56.60
79711;DHT22;69465;51.630;6.570;2023-05-10T11:20:59;17.70;55.40
79711;DHT22;69465;51.630;6.570;2023-05-10T11:23:52;17.80;55.30
79711;DHT22;69465;51.630;6.570;2023-05-10T11:26:18;18.00;56.80
79711;DHT22;69465;51.630;6.570;2023-05-10T11:28:48;18.20;55.70
79711;DHT22;69465;51.630;6.570;2023-05-10T11:31:17;18.20;55.50
79711;DHT22;69465;51.630;6.570;2023-05-10T11:36:16;18.50;55.30
79711;DHT22;69465;51.630;6.570;2023-05-10T11:38:43;18.50;53.50
79711;DHT22;69465;51.630;6.570;2023-05-10T11:41:11;18.50;53.80
79711;DHT22;69465;51.630;6.570;2023-05-10T11:43:39;18.60;53.70
79711;DHT22;69465;51.630;6.570;2023-05-10T11:46:10;18.80;53.60
79711;DHT22;69465;51.630;6.570;2023-05-10T11:48:41;18.90;52.80
79711;DHT22;69465;51.630;6.570;2023-05-10T11:51:09;19.00;51.70
79711;DHT22;69465;51.630;6.570;2023-05-10T11:53:37;19.00;51.20
79711;DHT22;69465;51.630;6.570;2023-05-10T11:56:05;19.10;50.90
79711;DHT22;69465;51.630;6.570;2023-05-10T11:58:33;19.20;51.30
79711;DHT22;69465;51.630;6.570;2023-05-10T12:01:00;19.40;50.80
79711;DHT22;69465;51.630;6.570;2023-05-10T12:03:28;19.50;51.20
79711;DHT22;69465;51.630;6.570;2023-05-10T12:05:58;19.70;49.90
79711;DHT22;69465;51.630;6.570;2023-05-10T12:08:27;19.90;49.80
79711;DHT22;69465;51.630;6.570;2023-05-10T12:11:07;19.90;48.60
79711;DHT22;69465;51.630;6.570;2023-05-10T12:13:40;19.90;49.80
79711;DHT22;69465;51.630;6.570;2023-05-10T12:16:16;20.20;50.50
79711;DHT22;69465;51.630;6.570;2023-05-10T12:18:43;20.30;48.80
79711;DHT22;69465;51.630;6.570;2023-05-10T12:21:11;20.40;47.10
79711;DHT22;69465;51.630;6.570;2023-05-10T12:23:41;20.40;47.30
79711;DHT22;69465;51.630;6.570;2023-05-10T12:26:11;20.60;49.50
79711;DHT22;69465;51.630;6.570;2023-05-10T12:28:38;20.60;45.70
79711;DHT22;69465;51.630;6.570;2023-05-10T12:31:06;20.70;46.60
79711;DHT22;69465;51.630;6.570;2023-05-10T12:33:41;20.80;47.20
79711;DHT22;69465;51.630;6.570;2023-05-10T12:36:09;21.00;45.30
79711;DHT22;69465;51.630;6.570;2023-05-10T12:41:07;21.50;45.30
79711;DHT22;69465;51.630;6.570;2023-05-10T12:43:35;21.60;43.80
79711;DHT22;69465;51.630;6.570;2023-05-10T12:48:33;21.60;45.80
79711;DHT22;69465;51.630;6.570;2023-05-10T12:51:01;21.80;44.40
79711;DHT22;69465;51.630;6.570;2023-05-10T12:53:28;21.70;44.40
79711;DHT22;69465;51.630;6.570;2023-05-10T12:55:55;21.50;44.50
79711;DHT22;69465;51.630;6.570;2023-05-10T12:58:22;21.10;44.20
79711;DHT22;69465;51.630;6.570;2023-05-10T13:01:01;20.60;44.90
79711;DHT22;69465;51.630;6.570;2023-05-10T13:03:28;20.10;46.10
79711;DHT22;69465;51.630;6.570;2023-05-10T13:05:54;19.80;48.30
79711;DHT22;69465;51.630;6.570;2023-05-10T13:08:21;19.50;48.80
79711;DHT22;69465;51.630;6.570;2023-05-10T13:10:48;19.40;50.10
79711;DHT22;69465;51.630;6.570;2023-05-10T13:13:15;19.30;49.20
79711;DHT22;69465;51.630;6.570;2023-05-10T13:15:42;19.30;48.60
79711;DHT22;69465;51.630;6.570;2023-05-10T13:18:09;19.40;49.20
79711;DHT22;69465;51.630;6.570;2023-05-10T13:20:35;19.40;49.20
79711;DHT22;69465;51.630;6.570;2023-05-10T13:23:02;19.50;48.80
79711;DHT22;69465;51.630;6.570;2023-05-10T13:25:29;19.70;50.70
79711;DHT22;69465;51.630;6.570;2023-05-10T13:27:55;19.80;49.00
79711;DHT22;69465;51.630;6.570;2023-05-10T13:30:22;19.90;48.00
79711;DHT22;69465;51.630;6.570;2023-05-10T13:32:49;20.00;48.80
79711;DHT22;69465;51.630;6.570;2023-05-10T13:35:16;20.10;48.00
79711;DHT22;69465;51.630;6.570;2023-05-10T13:37:42;20.00;47.60
79711;DHT22;69465;51.630;6.570;2023-05-10T13:40:09;20.10;49.00
79711;DHT22;69465;51.630;6.570;2023-05-10T13:42:36;19.90;47.90
79711;DHT22;69465;51.630;6.570;2023-05-10T13:45:03;19.80;47.40
79711;DHT22;69465;51.630;6.570;2023-05-10T13:47:30;19.80;47.90
79711;DHT22;69465;51.630;6.570;2023-05-10T13:49:57;19.90;48.60
79711;DHT22;69465;51.630;6.570;2023-05-10T13:52:23;19.90;48.90
79711;DHT22;69465;51.630;6.570;2023-05-10T13:54:50;20.00;48.60
79711;DHT22;69465;51.630;6.570;2023-05-10T13:57:17;20.00;47.90
79711;DHT22;69465;51.630;6.570;2023-05-10T13:59:43;20.10;48.20
79711;DHT22;69465;51.630;6.570;2023-05-10T14:02:10;20.10;48.20
79711;DHT22;69465;51.630;6.570;2023-05-10T14:04:37;20.20;47.90
79711;DHT22;69465;51.630;6.570;2023-05-10T14:07:05;20.40;48.00
79711;DHT22;69465;51.630;6.570;2023-05-10T14:09:31;20.40;48.20
79711;DHT22;69465;51.630;6.570;2023-05-10T14:11:58;20.40;46.80
79711;DHT22;69465;51.630;6.570;2023-05-10T14:14:25;20.50;48.00
79711;DHT22;69465;51.630;6.570;2023-05-10T14:16:51;20.40;47.10
79711;DHT22;69465;51.630;6.570;2023-05-10T14:19:18;20.40;46.60
79711;DHT22;69465;51.630;6.570;2023-05-10T14:21:45;20.40;47.60
79711;DHT22;69465;51.630;6.570;2023-05-10T14:24:12;20.40;47.30
79711;DHT22;69465;51.630;6.570;2023-05-10T14:26:38;20.40;46.70
79711;DHT22;69465;51.630;6.570;2023-05-10T14:29:05;20.50;46.90
79711;DHT22;69465;51.630;6.570;2023-05-10T14:31:31;20.40;47.20
79711;DHT22;69465;51.630;6.570;2023-05-10T14:33:58;20.40;47.20
79711;DHT22;69465;51.630;6.570;2023-05-10T14:36:25;20.30;46.20
79711;DHT22;69465;51.630;6.570;2023-05-10T14:38:52;20.10;46.20
79711;DHT22;69465;51.630;6.570;2023-05-10T14:41:19;19.90;47.30
79711;DHT22;69465;51.630;6.570;2023-05-10T14:43:45;19.80;48.10
79711;DHT22;69465;51.630;6.570;2023-05-10T14:46:12;19.50;47.70
79711;DHT22;69465;51.630;6.570;2023-05-10T14:48:39;19.10;48.40
79711;DHT22;69465;51.630;6.570;2023-05-10T14:51:05;18.70;48.10
79711;DHT22;69465;51.630;6.570;2023-05-10T14:53:32;18.50;49.60
79711;DHT22;69465;51.630;6.570;2023-05-10T14:55:59;18.20;49.70
79711;DHT22;69465;51.630;6.570;2023-05-10T14:58:25;17.80;49.80
79711;DHT22;69465;51.630;6.570;2023-05-10T15:00:52;17.60;50.80
79711;DHT22;69465;51.630;6.570;2023-05-10T15:03:19;17.50;51.00
79711;DHT22;69465;51.630;6.570;2023-05-10T15:05:46;17.20;51.60
79711;DHT22;69465;51.630;6.570;2023-05-10T15:08:13;17.10;52.30
79711;DHT22;69465;51.630;6.570;2023-05-10T15:10:40;16.90;52.50
79711;DHT22;69465;51.630;6.570;2023-05-10T15:13:06;16.80;53.60
79711;DHT22;69465;51.630;6.570;2023-05-10T15:15:33;16.70;53.60
79711;DHT22;69465;51.630;6.570;2023-05-10T15:18:00;16.60;54.60
79711;DHT22;69465;51.630;6.570;2023-05-10T15:20:26;16.50;56.10
79711;DHT22;69465;51.630;6.570;2023-05-10T15:22:53;16.40;57.70
79711;DHT22;69465;51.630;6.570;2023-05-10T15:25:20;16.30;58.30
79711;DHT22;69465;51.630;6.570;2023-05-10T15:27:47;16.20;57.60
79711;DHT22;69465;51.630;6.570;2023-05-10T15:30:14;16.20;59.40
79711;DHT22;69465;51.630;6.570;2023-05-10T15:32:40;16.20;59.80
79711;DHT22;69465;51.630;6.570;2023-05-10T15:35:10;16.20;59.80
79711;DHT22;69465;51.630;6.570;2023-05-10T15:37:37;16.20;59.80
79711;DHT22;69465;51.630;6.570;2023-05-10T15:40:04;16.20;60.00
79711;DHT22;69465;51.630;6.570;2023-05-10T15:42:31;16.30;60.90
79711;DHT22;69465;51.630;6.570;2023-05-10T15:44:58;16.30;61.10
79711;DHT22;69465;51.630;6.570;2023-05-10T15:47:26;16.30;62.00
79711;DHT22;69465;51.630;6.570;2023-05-10T15:49:52;16.40;62.00
79711;DHT22;69465;51.630;6.570;2023-05-10T15:52:20;16.50;61.00
79711;DHT22;69465;51.630;6.570;2023-05-10T15:54:46;16.60;62.20
79711;DHT22;69465;51.630;6.570;2023-05-10T15:57:13;16.60;61.60
79711;DHT22;69465;51.630;6.570;2023-05-10T15:59:39;16.70;61.30
79711;DHT22;69465;51.630;6.570;2023-05-10T16:02:08;16.80;60.80
79711;DHT22;69465;51.630;6.570;2023-05-10T16:04:34;16.90;60.50
79711;DHT22;69465;51.630;6.570;2023-05-10T16:07:01;17.00;60.20
79711;DHT22;69465;51.630;6.570;2023-05-10T16:09:27;17.10;58.50
79711;DHT22;69465;51.630;6.570;2023-05-10T16:11:54;17.20;58.70
79711;DHT22;69465;51.630;6.570;2023-05-10T16:14:21;17.40;58.70